Terminal Aerodrome Forecast
Issued by NWS

Home | Current Version | Previous Version | Text Only | Print | Product List | Glossary On
Versions: 1 2 3 4 5 6 7 8 9 10 11 12 13 14 15 16
000
FTUS46 KMTR 200500
TAFSJC
TAF
KSJC 200540Z 2006/2106 11003KT P6SM VCSH SCT030 BKN050
      TEMPO 2006/2008 -SHRA BKN025
     FM200900 14003KT P6SM VCSH BKN015 OVC025
     FM201500 16004KT P6SM BKN025 OVC100
     FM201800 14004KT P6SM SCT030 BKN100
     FM202300 25005KT P6SM SCT015 OVC050=

USA.gov is the U.S. government's official web portal to all federal, state and local government web resources and services.